Time;durP1;ratioP1;P1;durP2;ratioP2;P2;SDS_P1;SDS_P2;PMS_P1;PMS_P2;Temp;Humidity;BMP_temperature;BMP_pressure;BME280_temperature;BME280_humidity;BME280_pressure;Samples;Min_cycle;Max_cycle;Signal;HPM_P1;HPM_P2
2023/11/12 00:00:56;;;;;;;14.43;9.05;;;;;;;1.63;100.00;100643.13;4991167;28;20434;-83
2023/11/12 00:03:21;;;;;;;12.73;8.35;;;;;;;1.62;100.00;100651.06;4989488;28;20490;-84
2023/11/12 00:05:50;;;;;;;14.02;7.97;;;;;;;1.62;100.00;100648.44;4989292;28;20525;-83
2023/11/12 00:08:18;;;;;;;11.25;7.57;;;;;;;1.60;100.00;100643.28;4991075;28;20117;-84
2023/11/12 00:10:44;;;;;;;13.98;7.70;;;;;;;1.62;100.00;100651.06;4989040;28;20042;-83
2023/11/12 00:13:09;;;;;;;10.80;6.97;;;;;;;1.60;100.00;100645.91;4989446;28;20037;-82
2023/11/12 00:15:35;;;;;;;9.13;6.90;;;;;;;1.58;100.00;100643.38;4990742;28;20030;-82
2023/11/12 00:18:01;;;;;;;9.35;6.68;;;;;;;1.56;100.00;100645.22;4991047;28;20054;-83
2023/11/12 00:20:28;;;;;;;11.88;8.73;;;;;;;1.52;100.00;100641.09;4989430;28;20120;-81
2023/11/12 00:22:54;;;;;;;11.65;8.13;;;;;;;1.50;100.00;100642.09;4989199;28;20047;-82
2023/11/12 00:25:19;;;;;;;10.63;6.90;;;;;;;1.46;100.00;100638.78;4990903;28;20039;-81
2023/11/12 00:27:44;;;;;;;10.02;7.22;;;;;;;1.40;100.00;100639.13;4990463;28;20089;-83
2023/11/12 00:30:11;;;;;;;8.35;6.22;;;;;;;1.34;100.00;100635.06;4990705;28;20443;-83
2023/11/12 00:32:37;;;;;;;13.73;8.63;;;;;;;1.33;100.00;100635.16;4989646;28;20041;-83
2023/11/12 00:35:03;;;;;;;11.02;7.13;;;;;;;1.29;100.00;100639.75;4989384;28;20034;-83
2023/11/12 00:37:28;;;;;;;13.23;7.55;;;;;;;1.29;100.00;100633.66;4990888;28;20031;-83
2023/11/12 00:39:54;;;;;;;9.82;6.75;;;;;;;1.25;100.00;100626.88;4973159;28;20041;-82
2023/11/12 00:42:19;;;;;;;9.57;6.70;;;;;;;1.21;100.00;100626.22;4990623;28;20038;-82
2023/11/12 00:44:45;;;;;;;11.23;6.95;;;;;;;1.17;100.00;100629.94;4991280;28;20133;-83
2023/11/12 00:47:11;;;;;;;10.10;6.38;;;;;;;1.14;100.00;100630.09;4992815;28;20420;-82
2023/11/12 00:49:36;;;;;;;8.52;5.70;;;;;;;1.11;100.00;100622.41;4992720;28;20089;-83
2023/11/12 00:52:02;;;;;;;13.00;8.27;;;;;;;1.10;100.00;100624.16;4993017;28;20034;-83
2023/11/12 00:54:27;;;;;;;13.32;8.65;;;;;;;1.12;100.00;100632.81;4992792;28;20160;-83
2023/11/12 00:56:53;;;;;;;10.40;7.30;;;;;;;1.11;100.00;100631.09;4994160;28;20466;-83
2023/11/12 00:59:18;;;;;;;15.18;7.70;;;;;;;1.09;100.00;100632.97;4992887;28;20038;-83
2023/11/12 01:01:44;;;;;;;14.35;7.97;;;;;;;1.05;100.00;100629.66;4992669;28;20045;-82
2023/11/12 01:04:11;;;;;;;9.70;7.40;;;;;;;1.06;100.00;100627.91;4993873;28;20108;-84
2023/11/12 01:06:37;;;;;;;10.52;7.55;;;;;;;1.03;100.00;100631.53;4994244;28;20399;-83
2023/11/12 01:09:03;;;;;;;12.13;8.32;;;;;;;1.01;100.00;100625.50;4993863;28;20034;-83
2023/11/12 01:11:28;;;;;;;13.00;7.03;;;;;;;1.05;100.00;100628.81;4993932;28;20041;-83
2023/11/12 01:13:53;;;;;;;11.75;7.35;;;;;;;1.10;100.00;100618.09;4992423;28;20201;-82
2023/11/12 01:16:20;;;;;;;10.43;7.68;;;;;;;1.18;100.00;100614.13;5008618;28;20069;-82
2023/11/12 01:18:45;;;;;;;12.00;7.75;;;;;;;1.28;100.00;100622.31;4993520;28;20031;-83
2023/11/12 01:21:11;;;;;;;15.38;8.43;;;;;;;1.38;100.00;100623.50;4993818;28;20039;-82
2023/11/12 01:23:37;;;;;;;10.70;7.18;;;;;;;1.53;100.00;100628.81;4993342;28;20096;-81
2023/11/12 01:26:02;;;;;;;12.27;6.78;;;;;;;1.64;100.00;100626.44;4993505;28;20124;-83
2023/11/12 01:28:32;;;;;;;11.15;6.90;;;;;;;1.69;100.00;100618.31;4993499;28;20080;-83
2023/11/12 01:31:00;;;;;;;12.40;7.35;;;;;;;1.74;100.00;100624.97;4992182;28;20040;-81
2023/11/12 01:33:27;;;;;;;10.40;7.03;;;;;;;1.75;100.00;100615.34;4993211;28;20052;-82
2023/11/12 01:35:56;;;;;;;11.90;7.82;;;;;;;1.76;100.00;100620.50;4993539;28;20092;-83
2023/11/12 01:38:21;;;;;;;9.98;6.85;;;;;;;1.80;100.00;100621.16;4992973;28;20436;-82
2023/11/12 01:40:47;;;;;;;11.45;7.47;;;;;;;1.84;100.00;100619.22;4993025;28;20030;-82
2023/11/12 01:43:15;;;;;;;10.73;7.60;;;;;;;1.91;100.00;100625.78;4993142;28;20043;-82
2023/11/12 01:45:40;;;;;;;8.80;7.25;;;;;;;1.99;100.00;100625.38;4992928;28;20030;-82
2023/11/12 01:48:08;;;;;;;13.52;8.02;;;;;;;2.10;100.00;100621.16;4991759;28;20038;-84
2023/11/12 01:50:34;;;;;;;9.32;7.22;;;;;;;2.20;100.00;100618.00;4993412;28;20076;-82
2023/11/12 01:53:00;;;;;;;11.85;8.63;;;;;;;2.32;100.00;100616.44;4991454;28;20494;-82
2023/11/12 01:55:26;;;;;;;9.05;7.65;;;;;;;2.40;100.00;100615.00;4990601;28;20076;-82
2023/11/12 01:57:53;;;;;;;10.57;7.75;;;;;;;2.50;100.00;100619.75;4992855;28;20481;-82
2023/11/12 02:00:19;;;;;;;10.65;8.00;;;;;;;2.58;100.00;100614.84;5007764;28;20041;-82
2023/11/12 02:02:45;;;;;;;15.43;9.25;;;;;;;2.64;100.00;100614.47;4994888;28;20034;-83
2023/11/12 02:05:10;;;;;;;13.02;8.38;;;;;;;2.72;100.00;100624.53;4980805;28;20073;-82
2023/11/12 02:07:37;;;;;;;13.60;7.80;;;;;;;2.79;100.00;100631.09;4995985;28;20026;-84
2023/11/12 02:10:13;;;;;;;14.07;8.75;;;;;;;2.85;100.00;100617.56;4995751;28;20031;-83
2023/11/12 02:12:46;;;;;;;14.77;9.52;;;;;;;2.97;100.00;100622.09;4995862;28;20026;-85
2023/11/12 02:15:17;;;;;;;16.08;8.35;;;;;;;3.04;100.00;100621.69;4995837;28;20045;-84
2023/11/12 02:17:45;;;;;;;13.90;8.57;;;;;;;3.08;100.00;100621.41;4995662;28;20031;-84
2023/11/12 02:20:14;;;;;;;10.23;8.00;;;;;;;3.13;100.00;100615.84;4995263;28;20069;-83
2023/11/12 02:22:40;;;;;;;10.63;8.25;;;;;;;3.20;100.00;100613.72;4995229;28;20030;-83
2023/11/12 02:25:05;;;;;;;15.02;8.48;;;;;;;3.22;100.00;100617.06;4995397;28;20369;-83
2023/11/12 02:27:31;;;;;;;16.80;10.00;;;;;;;3.25;100.00;100612.44;4994995;28;20045;-82
2023/11/12 02:29:57;;;;;;;13.13;9.32;;;;;;;3.29;100.00;100613.13;4994914;28;20045;-84
2023/11/12 02:32:28;;;;;;;14.13;9.10;;;;;;;3.31;100.00;100606.81;4995151;28;20033;-82
2023/11/12 02:34:55;;;;;;;;;;;;;;;3.35;100.00;100615.34;4994347;28;20116;-83
2023/11/12 02:37:23;;;;;;;13.50;8.40;;;;;;;3.38;100.00;100617.78;4995223;28;20326;-82
2023/11/12 02:39:48;;;;;;;13.07;8.95;;;;;;;3.42;100.00;100613.16;4994198;28;20030;-81
2023/11/12 02:42:16;;;;;;;11.40;7.97;;;;;;;3.45;100.00;100619.06;4994456;28;20034;-82
2023/11/12 02:44:42;;;;;;;15.07;8.52;;;;;;;3.49;100.00;100612.69;4994367;28;20094;-81
2023/11/12 02:47:08;;;;;;;12.32;7.68;;;;;;;3.52;100.00;100612.50;4994719;28;20030;-81
2023/11/12 02:49:54;;;;;;;13.63;8.90;;;;;;;3.60;100.00;100600.59;4994934;28;20545;-81
2023/11/12 02:52:20;;;;;;;14.90;8.25;;;;;;;3.64;100.00;100609.97;4994320;28;20034;-82
2023/11/12 02:54:45;;;;;;;14.27;8.40;;;;;;;3.65;100.00;100606.41;4994541;28;20035;-80
2023/11/12 02:57:11;;;;;;;12.80;8.90;;;;;;;3.68;100.00;100606.22;4994614;28;20042;-80
2023/11/12 02:59:36;;;;;;;12.43;7.88;;;;;;;3.68;100.00;100606.22;4992932;28;20037;-81
2023/11/12 03:02:02;;;;;;;16.52;8.90;;;;;;;3.68;100.00;100608.84;4994507;28;20066;-81
2023/11/12 03:04:27;;;;;;;12.25;8.13;;;;;;;3.68;100.00;100611.47;4992919;28;20062;-81
2023/11/12 03:06:52;;;;;;;14.48;8.80;;;;;;;3.68;100.00;100614.94;4994168;28;20066;-80
2023/11/12 03:09:18;;;;;;;14.65;7.85;;;;;;;3.69;100.00;100615.81;4994160;28;20482;-81
2023/11/12 03:11:43;;;;;;;12.10;7.85;;;;;;;3.68;100.00;100611.47;4993137;28;20121;-81
2023/11/12 03:14:09;;;;;;;14.50;7.90;;;;;;;3.68;100.00;100614.13;4994630;28;20037;-80
2023/11/12 03:16:34;;;;;;;10.63;7.57;;;;;;;3.69;100.00;100610.53;4994668;28;20514;-82
2023/11/12 03:19:00;;;;;;;14.32;8.00;;;;;;;3.69;100.00;100613.19;4994475;28;20031;-81
2023/11/12 03:21:26;;;;;;;14.23;7.90;;;;;;;3.66;100.00;100605.47;4994385;28;20042;-82
2023/11/12 03:23:51;;;;;;;13.02;8.20;;;;;;;3.60;100.00;100604.09;4994132;28;20035;-83
2023/11/12 03:26:17;;;;;;;13.18;7.13;;;;;;;3.56;100.00;100607.03;4993707;28;20034;-82
2023/11/12 03:28:42;;;;;;;10.02;7.30;;;;;;;3.45;100.00;100603.28;4994192;28;20030;-82
2023/11/12 03:31:08;;;;;;;10.88;7.22;;;;;;;3.37;100.00;100610.00;4976670;28;20494;-82
2023/11/12 03:33:35;;;;;;;10.88;7.35;;;;;;;3.29;100.00;100606.06;4994029;28;20538;-82
2023/11/12 03:36:00;;;;;;;9.93;7.30;;;;;;;3.23;100.00;100601.19;4992992;28;20035;-81
2023/11/12 03:38:26;;;;;;;12.25;6.82;;;;;;;3.22;100.00;100601.28;4994106;28;20037;-82
2023/11/12 03:40:51;;;;;;;12.32;7.65;;;;;;;3.20;100.00;100595.28;4993964;28;20070;-81
2023/11/12 03:43:17;;;;;;;12.75;7.78;;;;;;;3.24;100.00;100599.41;4994052;28;20039;-81
2023/11/12 03:45:42;;;;;;;12.82;8.38;;;;;;;3.28;100.00;100599.09;4993861;28;20031;-81
2023/11/12 03:48:10;;;;;;;11.48;7.82;;;;;;;3.35;100.00;100595.13;4994005;28;20046;-82
2023/11/12 03:50:36;;;;;;;18.65;9.70;;;;;;;3.42;100.00;100592.97;4992841;28;20034;-82
2023/11/12 03:53:01;;;;;;;15.95;9.00;;;;;;;3.48;100.00;100591.75;4993274;28;20054;-82
2023/11/12 03:55:27;;;;;;;18.45;10.10;;;;;;;3.55;100.00;100589.53;4994422;28;20088;-82
2023/11/12 03:57:52;;;;;;;20.05;11.23;;;;;;;3.60;100.00;100588.31;4994766;28;20112;-82
2023/11/12 04:00:17;;;;;;;25.50;11.55;;;;;;;3.67;100.00;100586.97;4994204;28;20030;-81
2023/11/12 04:02:43;;;;;;;25.20;12.80;;;;;;;3.77;100.00;100591.63;4992651;28;20088;-81
2023/11/12 04:05:08;;;;;;;33.00;13.93;;;;;;;3.88;100.00;100592.59;4993684;28;20402;-81
2023/11/12 04:07:34;;;;;;;27.48;13.30;;;;;;;3.97;100.00;100596.41;4993276;28;20104;-82
2023/11/12 04:09:59;;;;;;;29.75;14.02;;;;;;;4.04;100.00;100595.03;4993729;28;20034;-81
2023/11/12 04:12:24;;;;;;;31.15;14.18;;;;;;;4.14;100.00;100591.78;4993900;28;20042;-81
2023/11/12 04:14:50;;;;;;;30.98;14.73;;;;;;;4.20;100.00;100592.22;4993759;28;20035;-83
2023/11/12 04:17:17;;;;;;;32.55;16.65;;;;;;;4.28;100.00;100588.22;4993693;28;20371;-82
2023/11/12 04:19:42;;;;;;;29.15;15.35;;;;;;;4.33;100.00;100584.34;4995413;28;20031;-82
2023/11/12 04:22:08;;;;;;;32.17;16.20;;;;;;;4.39;100.00;100594.44;4996579;28;20030;-82
2023/11/12 04:24:33;;;;;;;34.22;16.70;;;;;;;4.47;100.00;100591.28;4996236;28;20042;-82
2023/11/12 04:26:58;;;;;;;37.40;17.88;;;;;;;4.55;100.00;100591.59;4997341;28;20479;-82
2023/11/12 04:29:24;;;;;;;36.60;17.88;;;;;;;4.63;100.00;100592.84;4997196;28;20482;-82
2023/11/12 04:31:49;;;;;;;43.42;19.35;;;;;;;4.69;100.00;100595.91;4997006;28;20410;-82
2023/11/12 04:34:15;;;;;;;40.45;19.60;;;;;;;4.74;100.00;100595.59;4997990;28;20030;-81
2023/11/12 04:36:40;;;;;;;43.35;19.48;;;;;;;4.78;100.00;100586.50;4997957;28;20060;-82
2023/11/12 04:39:07;;;;;;;48.33;20.90;;;;;;;4.82;100.00;100595.91;4996908;28;20038;-82
2023/11/12 04:41:33;;;;;;;48.25;21.98;;;;;;;4.85;100.00;100592.19;4997173;28;20038;-81
2023/11/12 04:43:59;;;;;;;47.72;21.20;;;;;;;4.89;100.00;100596.31;4996851;28;20108;-81
2023/11/12 04:46:25;;;;;;;51.03;21.85;;;;;;;4.93;100.00;100597.78;4995698;28;20037;-81
2023/11/12 04:48:50;;;;;;;43.42;21.15;;;;;;;4.94;100.00;100599.44;4996842;28;20050;-82
2023/11/12 04:51:19;;;;;;;45.13;21.45;;;;;;;4.97;100.00;100606.31;4996894;28;20416;-82
2023/11/12 04:53:45;;;;;;;49.03;21.00;;;;;;;4.98;100.00;100600.91;4996517;28;20446;-83
2023/11/12 04:56:11;;;;;;;46.08;20.20;;;;;;;5.00;100.00;100604.31;4997154;28;20128;-82
2023/11/12 04:58:37;;;;;;;47.42;21.48;;;;;;;5.01;100.00;100611.25;4996394;28;20046;-81
2023/11/12 05:01:03;;;;;;;40.40;19.40;;;;;;;5.01;100.00;100615.69;4996758;28;20038;-81
2023/11/12 05:03:31;;;;;;;43.33;19.75;;;;;;;5.01;100.00;100611.25;4996791;28;20030;-83
2023/11/12 05:05:58;;;;;;;37.30;19.30;;;;;;;5.02;100.00;100614.75;4995302;28;20502;-81
2023/11/12 05:08:23;;;;;;;40.20;19.40;;;;;;;5.03;100.00;100619.03;4996621;28;20030;-83
2023/11/12 05:10:49;;;;;;;40.25;18.60;;;;;;;5.03;100.00;100619.91;4994883;28;20045;-82
2023/11/12 05:13:14;;;;;;;47.80;19.00;;;;;;;5.03;100.00;100619.91;4995596;28;20120;-81
2023/11/12 05:15:40;;;;;;;45.03;19.08;;;;;;;5.04;100.00;100624.22;4996141;28;20498;-82
2023/11/12 05:18:06;;;;;;;46.55;19.75;;;;;;;5.05;100.00;100622.44;4995932;28;20030;-82
2023/11/12 05:20:33;;;;;;;40.60;18.27;;;;;;;5.04;100.00;100618.94;4996654;28;20538;-82
2023/11/12 05:22:59;;;;;;;43.28;19.33;;;;;;;5.02;100.00;100612.94;4996920;28;20058;-81
2023/11/12 05:25:24;;;;;;;43.97;19.13;;;;;;;5.02;100.00;100614.75;4996261;28;20069;-81
2023/11/12 05:27:50;;;;;;;41.45;19.95;;;;;;;5.01;100.00;100619.16;4994983;28;20031;-83
2023/11/12 05:30:15;;;;;;;39.60;19.13;;;;;;;5.00;100.00;100621.91;4995564;28;20118;-83
2023/11/12 05:32:41;;;;;;;44.35;20.13;;;;;;;4.96;100.00;100626.56;4996040;28;20057;-82
2023/11/12 05:35:06;;;;;;;37.42;19.00;;;;;;;4.96;100.00;100629.19;4995950;28;20030;-82
2023/11/12 05:37:32;;;;;;;43.85;19.55;;;;;;;4.93;100.00;100627.59;4995874;28;20598;-81
2023/11/12 05:39:57;;;;;;;41.45;19.02;;;;;;;4.92;100.00;100625.09;4996226;28;20057;-83
2023/11/12 05:42:22;;;;;;;41.53;19.63;;;;;;;4.88;100.00;100624.47;4995984;28;20061;-83
2023/11/12 05:44:48;;;;;;;42.05;18.85;;;;;;;4.88;100.00;100623.59;4995921;28;20093;-84
2023/11/12 05:47:14;;;;;;;44.42;20.15;;;;;;;4.88;100.00;100623.59;4994785;28;20501;-82
2023/11/12 05:49:39;;;;;;;49.15;20.83;;;;;;;4.86;100.00;100631.63;4995641;28;20463;-81
2023/11/12 05:52:05;;;;;;;43.90;19.65;;;;;;;4.85;100.00;100629.09;4996412;28;20065;-81
2023/11/12 05:54:30;;;;;;;43.90;20.92;;;;;;;4.84;100.00;100627.44;4996037;28;20026;-81
2023/11/12 05:56:55;;;;;;;44.17;20.95;;;;;;;4.80;100.00;100624.16;4995967;28;20390;-81
2023/11/12 05:59:23;;;;;;;49.20;21.27;;;;;;;4.81;100.00;100632.88;4996746;28;20034;-81
2023/11/12 06:01:49;;;;;;;48.50;21.35;;;;;;;4.79;100.00;100632.16;4996744;28;20038;-81
2023/11/12 06:04:14;;;;;;;47.05;21.85;;;;;;;4.77;100.00;100629.63;4995676;28;20046;-82
2023/11/12 06:06:41;;;;;;;45.53;22.05;;;;;;;4.80;100.00;100634.69;4995719;28;20037;-80
2023/11/12 06:09:07;;;;;;;52.70;22.88;;;;;;;4.80;100.00;100637.31;4995020;28;20066;-82
2023/11/12 06:11:38;;;;;;;50.05;22.88;;;;;;;4.81;100.00;100635.53;4994851;28;20030;-82
2023/11/12 06:14:04;;;;;;;60.45;25.45;;;;;;;4.80;100.00;100633.84;4996751;28;20120;-81
2023/11/12 06:16:30;;;;;;;63.22;26.25;;;;;;;4.81;100.00;100633.75;4995960;28;20086;-82
2023/11/12 06:18:55;;;;;;;55.92;25.67;;;;;;;4.80;100.00;100637.31;4995913;28;20030;-82
2023/11/12 06:21:20;;;;;;;60.50;26.60;;;;;;;4.79;100.00;100638.25;4995746;28;20037;-81
2023/11/12 06:23:46;;;;;;;62.15;26.48;;;;;;;4.80;100.00;100647.88;4995498;28;20066;-81
2023/11/12 06:26:12;;;;;;;51.00;25.77;;;;;;;4.77;100.00;100637.53;4995405;28;20080;-82
2023/11/12 06:28:38;;;;;;;58.88;26.85;;;;;;;4.79;100.00;100645.34;4995760;28;20121;-81
2023/11/12 06:31:04;;;;;;;61.10;27.80;;;;;;;4.77;100.00;100638.38;4995752;28;20040;-82
2023/11/12 06:33:29;;;;;;;59.80;28.40;;;;;;;4.74;100.00;100635.94;4994856;28;20026;-81
2023/11/12 06:35:55;;;;;;;55.80;27.77;;;;;;;4.74;100.00;100643.84;4995677;28;20038;-81
2023/11/12 06:38:20;;;;;;;60.25;27.88;;;;;;;4.74;100.00;100635.13;4993961;28;20041;-81
2023/11/12 06:40:45;;;;;;;57.45;28.40;;;;;;;4.74;100.00;100645.66;4995324;28;20070;-81
2023/11/12 06:43:11;;;;;;;55.97;27.83;;;;;;;4.73;100.00;100641.34;4994938;28;20034;-82
2023/11/12 06:45:37;;;;;;;57.15;28.73;;;;;;;4.72;100.00;100639.66;4995753;28;20054;-83
2023/11/12 06:48:02;;;;;;;64.60;29.30;;;;;;;4.69;100.00;100645.97;4996689;28;20069;-82
2023/11/12 06:50:28;;;;;;;58.70;27.63;;;;;;;4.72;100.00;100647.56;4998765;28;20037;-83
2023/11/12 06:52:53;;;;;;;65.45;28.55;;;;;;;4.74;100.00;100645.66;4999153;28;20042;-82
2023/11/12 06:55:18;;;;;;;63.65;29.85;;;;;;;4.75;100.00;100642.91;4994932;28;20034;-82
2023/11/12 06:57:44;;;;;;;66.18;28.85;;;;;;;4.76;100.00;100649.88;4995337;28;20049;-83
2023/11/12 07:00:10;;;;;;;70.85;29.25;;;;;;;4.77;100.00;100650.72;4993727;28;20034;-82
2023/11/12 07:02:37;;;;;;;66.90;29.85;;;;;;;4.78;100.00;100652.41;4994640;28;20507;-82
2023/11/12 07:05:06;;;;;;;59.78;28.55;;;;;;;4.81;100.00;100651.34;4994185;28;20050;-82
2023/11/12 07:07:32;;;;;;;68.75;28.63;;;;;;;4.81;100.00;100651.34;4994523;28;20031;-82
2023/11/12 07:09:57;;;;;;;62.80;27.92;;;;;;;4.82;100.00;100653.03;4994586;28;20037;-82
2023/11/12 07:12:23;;;;;;;61.17;26.63;;;;;;;4.78;100.00;100655.06;4994466;28;20447;-82
2023/11/12 07:14:49;;;;;;;58.25;26.83;;;;;;;4.81;100.00;100654.84;4994215;28;20538;-82
2023/11/12 07:17:15;;;;;;;49.60;25.23;;;;;;;4.80;100.00;100654.94;4994590;28;20042;-84
2023/11/12 07:19:42;;;;;;;52.42;26.92;;;;;;;4.80;100.00;100666.31;4994104;28;20041;-83
2023/11/12 07:22:07;;;;;;;54.20;25.38;;;;;;;4.80;100.00;100671.59;4994302;28;20030;-81
2023/11/12 07:24:36;;;;;;;59.42;27.52;;;;;;;4.79;100.00;100675.19;4994488;28;20117;-83
2023/11/12 07:27:02;;;;;;;53.25;26.52;;;;;;;4.75;100.00;100681.63;4994451;28;20037;-83
2023/11/12 07:29:28;;;;;;;57.05;25.50;;;;;;;4.72;100.00;100680.03;4994936;28;20062;-83
2023/11/12 07:31:54;;;;;;;50.90;24.55;;;;;;;4.69;100.00;100674.97;4994427;28;20607;-82
2023/11/12 07:34:20;;;;;;;57.80;25.73;;;;;;;4.69;100.00;100677.63;4994471;28;20038;-83
2023/11/12 07:36:47;;;;;;;45.65;24.05;;;;;;;4.68;100.00;100675.91;4994637;28;20044;-82
2023/11/12 07:39:13;;;;;;;46.65;24.02;;;;;;;4.71;100.00;100680.97;4994666;28;20088;-83
2023/11/12 07:41:39;;;;;;;52.80;25.83;;;;;;;4.77;100.00;100677.91;4994157;28;20034;-82
2023/11/12 07:44:05;;;;;;;49.42;24.38;;;;;;;4.85;100.00;100673.91;4994434;28;20132;-83
2023/11/12 07:46:31;;;;;;;53.40;25.95;;;;;;;4.94;100.00;100681.19;4993701;28;20176;-83
2023/11/12 07:48:56;;;;;;;59.25;27.08;;;;;;;5.03;100.00;100682.34;4994118;28;20501;-82
2023/11/12 07:51:22;;;;;;;55.30;27.27;;;;;;;5.13;100.00;100688.66;4993725;28;20042;-82
2023/11/12 07:53:48;;;;;;;53.08;26.80;;;;;;;5.26;100.00;100694.75;4994332;28;20038;-83
2023/11/12 07:56:14;;;;;;;54.67;27.23;;;;;;;5.36;100.00;100694.97;4996718;28;20376;-84
2023/11/12 07:58:39;;;;;;;51.83;26.42;;;;;;;5.44;100.00;100695.25;4997871;28;20042;-83
2023/11/12 08:01:05;;;;;;;54.80;26.63;;;;;;;5.47;100.00;100700.31;4997024;28;20045;-85
2023/11/12 08:03:33;;;;;;;55.42;25.40;;;;;;;5.48;100.00;100695.88;4999329;28;20026;-83
2023/11/12 08:05:58;;;;;;;49.72;25.02;;;;;;;5.47;100.00;100700.31;4999061;28;20494;-87
2023/11/12 08:08:26;;;;;;;44.45;23.25;;;;;;;5.50;100.00;100703.69;4998613;28;20038;-88
2023/11/12 08:10:53;;;;;;;49.88;24.67;;;;;;;5.51;100.00;100702.72;4997284;28;20093;-87
2023/11/12 08:13:19;;;;;;;45.85;22.98;;;;;;;5.50;100.00;100711.63;4998069;28;20034;-86
2023/11/12 08:15:44;;;;;;;41.10;22.58;;;;;;;5.52;100.00;100705.25;4997853;28;20038;-85
2023/11/12 08:18:09;;;;;;;41.35;22.60;;;;;;;5.58;100.00;100703.97;4998080;28;20031;-89
2023/11/12 08:20:35;;;;;;;46.25;22.13;;;;;;;5.65;100.00;100705.22;4997980;28;20041;-85
2023/11/12 08:23:01;;;;;;;41.53;22.08;;;;;;;5.72;100.00;100708.25;4996364;28;20056;-78
2023/11/12 08:25:27;;;;;;;41.10;22.45;;;;;;;5.77;100.00;100706.97;4997118;28;20053;-82
2023/11/12 08:27:53;;;;;;;49.65;22.92;;;;;;;5.88;100.00;100700.06;4997522;28;20121;-83
2023/11/12 08:30:19;;;;;;;49.60;23.40;;;;;;;6.00;100.00;100701.84;4997454;28;20125;-81
2023/11/12 08:32:44;;;;;;;43.25;21.83;;;;;;;6.05;100.00;100701.53;4997473;28;20133;-82
2023/11/12 08:35:10;;;;;;;37.50;20.95;;;;;;;6.03;100.00;100704.28;4997511;28;20031;-84
2023/11/12 08:37:35;;;;;;;37.83;20.00;;;;;;;6.00;100.00;100705.34;4996008;28;20105;-85
2023/11/12 08:40:02;;;;;;;46.22;22.42;;;;;;;6.06;100.00;100708.47;4996948;28;20041;-83
2023/11/12 08:42:28;;;;;;;47.60;22.15;;;;;;;6.11;100.00;100711.63;4997084;28;20026;-82
2023/11/12 08:44:55;;;;;;;40.22;20.95;;;;;;;6.15;100.00;100716.56;4997562;28;20037;-83
2023/11/12 08:47:20;;;;;;;39.95;20.83;;;;;;;6.13;100.00;100713.19;4996905;28;20027;-81
2023/11/12 08:49:46;;;;;;;40.47;20.83;;;;;;;6.12;100.00;100708.00;4997376;28;20478;-81
2023/11/12 08:52:14;;;;;;;39.53;21.52;;;;;;;6.14;100.00;100714.03;4997097;28;20038;-82
2023/11/12 08:54:40;;;;;;;41.22;21.42;;;;;;;6.18;100.00;100724.28;4996998;28;20042;-84
2023/11/12 08:57:05;;;;;;;41.70;21.33;;;;;;;6.24;100.00;100732.69;4996592;28;20367;-84
2023/11/12 08:59:31;;;;;;;45.85;22.60;;;;;;;6.29;100.00;100725.28;4997195;28;20080;-86
2023/11/12 09:01:56;;;;;;;46.17;23.20;;;;;;;6.43;100.00;100727.72;4996513;28;20105;-83
2023/11/12 09:04:21;;;;;;;40.00;22.10;;;;;;;6.55;100.00;100722.47;4995459;28;20084;-83
2023/11/12 09:06:47;;;;;;;35.85;21.77;;;;;;;6.70;100.00;100727.44;4995531;28;20041;-83
2023/11/12 09:09:12;;;;;;;37.70;21.10;;;;;;;6.80;100.00;100730.22;4995301;28;20045;-84
2023/11/12 09:11:38;;;;;;;37.47;20.10;;;;;;;6.71;100.00;100731.75;4996702;28;20444;-83
2023/11/12 09:14:05;;;;;;;34.33;19.38;;;;;;;6.70;100.00;100726.59;4997604;28;20038;-84
2023/11/12 09:16:31;;;;;;;34.00;19.88;;;;;;;6.64;100.00;100730.56;4996392;28;20042;-85
2023/11/12 09:18:57;;;;;;;32.25;18.17;;;;;;;6.68;100.00;100732.00;4995187;28;20130;-82
2023/11/12 09:21:23;;;;;;;28.67;18.10;;;;;;;6.66;100.00;100727.81;4996372;28;20031;-83
2023/11/12 09:23:49;;;;;;;31.35;17.17;;;;;;;6.66;100.00;100733.94;4996532;28;20093;-83
2023/11/12 09:26:20;;;;;;;36.88;18.58;;;;;;;6.71;100.00;100739.69;4996578;28;20037;-82
2023/11/12 09:28:46;;;;;;;32.70;17.42;;;;;;;6.78;100.00;100740.09;4996471;28;20085;-82
2023/11/12 09:31:12;;;;;;;30.02;16.83;;;;;;;6.86;100.00;100737.69;4996219;28;20073;-84
2023/11/12 09:33:37;;;;;;;32.95;17.55;;;;;;;7.02;100.00;100745.28;4995084;28;20054;-83
2023/11/12 09:36:03;;;;;;;29.63;16.60;;;;;;;7.20;100.00;100740.38;4996298;28;20045;-83
2023/11/12 09:38:29;;;;;;;29.42;15.70;;;;;;;7.36;100.00;100741.81;4996542;28;20462;-83
2023/11/12 09:40:58;;;;;;;25.73;15.20;;;;;;;7.41;100.00;100737.00;4996333;28;20069;-84
2023/11/12 09:43:28;;;;;;;24.52;14.45;;;;;;;7.39;100.00;100738.94;4996241;28;20034;-83
2023/11/12 09:45:56;;;;;;;25.23;14.77;;;;;;;7.36;100.00;100736.53;4995180;28;20118;-82
2023/11/12 09:48:35;;;;;;;29.88;15.48;;;;;;;7.36;100.00;100741.81;4994543;28;20066;-78
2023/11/12 09:51:05;;;;;;;28.45;14.90;;;;;;;7.38;100.00;100737.25;4995593;28;20026;-77
2023/11/12 09:53:32;;;;;;;26.35;15.05;;;;;;;7.44;100.00;100741.22;4996904;28;20042;-79
2023/11/12 09:55:57;;;;;;;25.77;14.52;;;;;;;7.48;100.00;100740.88;4995915;28;20026;-79
2023/11/12 09:58:23;;;;;;;24.33;14.18;;;;;;;7.56;100.00;100748.19;4994967;28;20042;-80
2023/11/12 10:00:49;;;;;;;19.60;13.82;;;;;;;7.63;100.00;100741.47;4995825;28;20026;-79
2023/11/12 10:03:15;;;;;;;23.85;13.07;;;;;;;7.65;100.00;100744.81;4995422;28;20049;-79
2023/11/12 10:05:41;;;;;;;26.65;14.25;;;;;;;7.72;100.00;100748.66;4994372;28;20058;-78
2023/11/12 10:08:06;;;;;;;30.38;14.73;;;;;;;7.87;100.00;100741.28;4995516;28;20042;-78
2023/11/12 10:10:33;;;;;;;23.10;13.13;;;;;;;8.05;100.00;100744.25;4994353;28;20092;-81
2023/11/12 10:12:59;;;;;;;24.13;12.45;;;;;;;8.08;100.00;100748.47;4995931;28;20080;-80
2023/11/12 10:15:30;;;;;;;16.92;11.98;;;;;;;8.27;100.00;100753.06;4995177;28;20493;-79
2023/11/12 10:17:56;;;;;;;21.10;11.38;;;;;;;8.41;100.00;100747.50;4994734;28;20026;-78
2023/11/12 10:20:23;;;;;;;18.48;10.90;;;;;;;8.53;100.00;100742.19;4996041;28;20088;-78
2023/11/12 10:22:49;;;;;;;15.55;11.07;;;;;;;8.64;100.00;100737.66;4995276;28;20026;-79
2023/11/12 10:25:40;;;;;;;17.30;10.57;;;;;;;8.67;100.00;100739.19;4994494;28;20034;-78
2023/11/12 10:28:07;;;;;;;16.23;10.10;;;;;;;8.60;100.00;100746.00;4995308;28;20041;-78
2023/11/12 10:30:37;;;;;;;13.65;9.68;;;;;;;8.68;100.00;100743.53;4993812;28;20049;-78
2023/11/12 10:33:26;;;;;;;15.20;9.38;;;;;;;8.72;100.00;100742.31;4995651;28;20030;-79
2023/11/12 10:35:54;;;;;;;15.75;9.43;;;;;;;8.94;100.00;100743.13;4995589;28;20434;-80
2023/11/12 10:38:20;;;;;;;17.23;9.40;;;;;;;9.35;100.00;100744.88;4993641;28;20057;-79
2023/11/12 10:41:07;;;;;;;14.00;7.70;;;;;;;9.87;100.00;100747.41;4995071;28;20116;-79
2023/11/12 10:43:35;;;;;;;19.67;8.07;;;;;;;10.17;100.00;100735.00;4993995;28;20493;-78
2023/11/12 10:46:06;;;;;;;12.25;6.78;;;;;;;10.28;100.00;100739.34;4994925;28;20035;-79
2023/11/12 10:48:34;;;;;;;12.65;6.57;;;;;;;10.22;100.00;100730.09;4994382;28;20035;-83
2023/11/12 10:51:02;;;;;;;13.35;7.10;;;;;;;10.14;100.00;100739.78;4994852;28;20057;-80
2023/11/12 10:53:30;;;;;;;12.93;6.97;;;;;;;10.01;100.00;100745.34;4994707;28;20524;-80
2023/11/12 10:55:59;;;;;;;13.38;7.45;;;;;;;9.88;100.00;100751.78;4993165;28;20042;-81
2023/11/12 10:58:26;;;;;;;12.73;7.72;;;;;;;9.69;100.00;100743.75;4993221;28;20061;-80
2023/11/12 11:00:55;;;;;;;14.30;7.15;;;;;;;9.78;100.00;100740.28;4993397;28;20030;-81
2023/11/12 11:03:23;;;;;;;12.57;7.72;;;;;;;9.68;100.00;100744.72;4994613;28;20045;-80
2023/11/12 11:05:50;;;;;;;11.30;7.15;;;;;;;9.52;100.00;100758.50;4992880;28;20379;-82
2023/11/12 11:08:15;;;;;;;12.70;8.93;;;;;;;9.35;100.00;100749.34;4994533;28;20038;-82